Time;durP1;ratioP1;P1;durP2;ratioP2;P2;SDS_P1;SDS_P2;PMS_P1;PMS_P2;Temp;Humidity;BMP_temperature;BMP_pressure;BME280_temperature;BME280_humidity;BME280_pressure;Samples;Min_cycle;Max_cycle;Signal;HPM_P1;HPM_P2
2022/11/03 00:01:42;;;;;;;42.90;22.35;;;;;;;8.91;79.61;99333.13;1636421;86;34669;-63
2022/11/03 00:04:11;;;;;;;45.35;24.98;;;;;;;8.87;79.67;99338.91;1659308;86;25740;-63
2022/11/03 00:06:40;;;;;;;41.90;21.90;;;;;;;8.85;79.69;99334.27;1659299;86;25441;-63
2022/11/03 00:09:10;;;;;;;42.78;23.35;;;;;;;8.84;79.67;99331.28;1659357;86;27475;-63
2022/11/03 00:11:39;;;;;;;40.05;21.70;;;;;;;8.82;79.56;99329.37;1659234;86;25806;-63
2022/11/03 00:14:08;;;;;;;37.50;19.45;;;;;;;8.75;79.37;99323.67;1659280;86;25657;-63
2022/11/03 00:16:35;;;;;;;38.13;20.62;;;;;;;8.78;79.72;99325.05;1659336;86;25703;-64
2022/11/03 00:19:03;;;;;;;37.25;20.27;;;;;;;8.78;79.57;99324.47;1659038;86;25500;-63
2022/11/03 00:21:30;;;;;;;32.08;17.92;;;;;;;8.78;79.11;99327.20;1659345;86;27485;-63
2022/11/03 00:23:56;;;;;;;34.95;18.00;;;;;;;8.69;78.90;99322.65;1659040;86;25507;-63
2022/11/03 00:26:25;;;;;;;35.03;18.12;;;;;;;8.49;78.99;99326.55;1658935;86;25764;-63
2022/11/03 00:28:55;;;;;;;37.55;21.62;;;;;;;8.28;79.15;99325.88;1659314;86;25673;-63
2022/11/03 00:31:26;;;;;;;46.42;24.52;;;;;;;8.12;79.39;99334.13;1659285;86;25773;-63
2022/11/03 00:33:53;;;;;;;51.13;25.30;;;;;;;7.95;79.57;99324.13;1659401;86;27368;-63
2022/11/03 00:36:24;;;;;;;43.92;24.87;;;;;;;7.88;79.81;99332.06;1659166;86;25445;-63
2022/11/03 00:38:51;;;;;;;41.02;22.80;;;;;;;7.86;80.06;99329.36;1658175;84;25732;-63
2022/11/03 00:41:19;;;;;;;37.65;20.35;;;;;;;7.86;79.94;99329.36;1659106;86;25662;-63
2022/11/03 00:43:48;;;;;;;33.90;17.98;;;;;;;7.81;79.67;99336.19;1659161;84;25673;-63
2022/11/03 00:46:15;;;;;;;31.50;17.52;;;;;;;7.73;79.49;99336.21;1659112;86;27435;-64
2022/11/03 00:48:42;;;;;;;30.77;16.40;;;;;;;7.67;79.49;99339.51;1658909;86;25829;-63
2022/11/03 00:51:16;;;;;;;32.30;17.37;;;;;;;7.60;79.54;99343.09;1659256;86;25612;-63
2022/11/03 00:53:55;;;;;;;36.75;19.15;;;;;;;7.53;79.37;99348.28;1657866;86;26586;-63
2022/11/03 00:56:37;;;;;;;30.85;16.42;;;;;;;7.48;79.72;99344.19;1659143;86;25507;-63
2022/11/03 00:59:06;;;;;;;34.15;17.42;;;;;;;7.44;79.92;99346.37;1659140;86;27436;-63
2022/11/03 01:01:42;;;;;;;31.00;17.40;;;;;;;7.40;79.92;99342.04;1659325;86;25811;-63
2022/11/03 01:06:58;;;;;;;36.35;17.67;;;;;;;7.34;80.37;99344.50;1659101;86;25633;-63
2022/11/03 01:09:40;;;;;;;36.15;19.25;;;;;;;7.31;80.49;99348.57;1659445;86;25427;-63
2022/11/03 01:12:16;;;;;;;34.58;17.75;;;;;;;7.32;80.46;99348.87;1658932;86;27485;-63
2022/11/03 01:14:50;;;;;;;34.40;18.62;;;;;;;7.30;80.40;99355.13;1659414;86;25671;-63
2022/11/03 01:17:21;;;;;;;36.33;17.95;;;;;;;7.20;80.05;99351.05;1658994;85;25773;-63
2022/11/03 01:19:47;;;;;;;32.10;19.12;;;;;;;7.12;80.37;99354.61;1659575;85;25763;-63
2022/11/03 01:22:15;;;;;;;38.53;19.27;;;;;;;6.96;80.78;99345.61;1659061;86;25497;-63
2022/11/03 01:24:43;;;;;;;36.73;19.87;;;;;;;6.87;81.07;99349.95;1659450;86;28309;-63
2022/11/03 01:27:12;;;;;;;36.23;20.45;;;;;;;6.81;81.27;99351.05;1659353;86;25683;-63
2022/11/03 01:29:39;;;;;;;36.48;20.23;;;;;;;6.73;81.50;99347.78;1659354;86;25612;-63
2022/11/03 01:32:11;;;;;;;35.00;20.15;;;;;;;6.73;81.73;99351.86;1659168;86;25773;-63
2022/11/03 01:34:35;;;;;;;42.60;20.57;;;;;;;6.76;81.59;99349.13;1658986;86;25677;-63
2022/11/03 01:37:03;;;;;;;37.93;19.70;;;;;;;6.81;81.77;99342.88;1659000;86;29540;-63
2022/11/03 01:39:29;;;;;;;39.27;20.20;;;;;;;6.80;81.61;99346.16;1659286;86;25472;-63
2022/11/03 01:41:56;;;;;;;36.68;19.52;;;;;;;6.80;81.53;99352.97;1660481;84;25501;-63
2022/11/03 01:44:32;;;;;;;32.17;18.02;;;;;;;6.81;81.43;99344.23;1693400;84;25747;-63
2022/11/03 01:47:24;;;;;;;36.40;19.30;;;;;;;6.77;81.09;99347.50;1693680;84;25608;-63
2022/11/03 01:50:09;;;;;;;38.35;20.92;;;;;;;6.64;81.11;99342.05;1693783;84;27393;-63
2022/11/03 01:52:55;;;;;;;39.13;21.07;;;;;;;6.51;81.47;99347.47;1693357;84;25451;-63
2022/11/03 01:55:29;;;;;;;36.68;20.30;;;;;;;6.48;82.08;99337.11;1693897;84;25623;-63
2022/11/03 01:58:21;;;;;;;48.87;25.10;;;;;;;6.46;81.69;99344.75;1693358;84;25767;-63
2022/11/03 02:00:51;;;;;;;41.73;22.60;;;;;;;6.34;81.97;99340.92;1687819;84;25615;-63
2022/11/03 02:03:20;;;;;;;42.85;22.80;;;;;;;6.26;81.96;99339.53;1693603;84;27553;-63
2022/11/03 02:05:49;;;;;;;38.83;22.32;;;;;;;6.24;82.10;99338.98;1693499;84;25664;-63
2022/11/03 02:08:23;;;;;;;40.90;22.40;;;;;;;6.25;82.09;99342.52;1693749;84;25992;-63
2022/11/03 02:10:51;;;;;;;37.42;20.75;;;;;;;6.23;82.10;99346.88;1693348;84;25941;-63
2022/11/03 02:13:23;;;;;;;39.13;20.97;;;;;;;6.20;82.02;99345.22;1693842;84;25649;-63
2022/11/03 02:15:54;;;;;;;35.80;18.95;;;;;;;6.19;81.96;99339.52;1693573;84;27447;-63
2022/11/03 02:18:29;;;;;;;37.33;20.55;;;;;;;6.11;81.80;99336.77;1693681;84;25684;-63
2022/11/03 02:21:03;;;;;;;40.73;21.02;;;;;;;6.05;82.08;99333.75;1693739;84;25703;-63
2022/11/03 02:23:42;;;;;;;39.50;19.02;;;;;;;6.04;82.46;99337.00;1693449;84;25866;-63
2022/11/03 02:26:11;;;;;;;39.63;20.60;;;;;;;6.07;82.60;99330.23;1693250;84;25641;-63
2022/11/03 02:28:37;;;;;;;42.80;20.50;;;;;;;6.03;82.51;99333.45;1693276;84;27471;-63
2022/11/03 02:31:11;;;;;;;41.05;21.52;;;;;;;5.93;83.08;99336.11;1693567;84;25951;-63
2022/11/03 02:34:07;;;;;;;40.30;21.02;;;;;;;5.82;82.92;99326.28;1693664;84;25467;-63
2022/11/03 02:36:55;;;;;;;47.17;22.75;;;;;;;5.70;83.07;99331.95;1693326;84;25749;-63
2022/11/03 02:39:33;;;;;;;47.55;25.23;;;;;;;5.63;83.48;99331.64;1693310;84;25498;-63
2022/11/03 02:42:02;;;;;;;48.02;25.43;;;;;;;5.51;83.30;99326.42;1693642;84;27081;-63
2022/11/03 02:44:29;;;;;;;42.62;23.95;;;;;;;5.45;83.32;99330.19;1693211;84;25506;-63
2022/11/03 02:46:59;;;;;;;50.58;24.87;;;;;;;5.40;83.44;99327.42;1663950;84;25674;-63
2022/11/03 02:49:26;;;;;;;45.35;23.85;;;;;;;5.35;83.61;99323.30;1694029;84;25759;-63
2022/11/03 02:52:05;;;;;;;49.13;24.32;;;;;;;5.33;83.81;99327.67;1693639;84;25449;-63
2022/11/03 02:54:37;;;;;;;45.03;23.87;;;;;;;5.38;83.76;99320.89;1693740;84;27352;-63
2022/11/03 02:57:16;;;;;;;43.90;24.47;;;;;;;5.46;83.63;99326.91;1693430;84;25584;-62
2022/11/03 02:59:59;;;;;;;43.48;23.42;;;;;;;5.46;82.94;99330.98;1693738;84;25518;-62
2022/11/03 03:02:31;;;;;;;42.93;22.98;;;;;;;5.47;83.00;99330.72;1691759;84;26472;-62
2022/11/03 03:05:01;;;;;;;40.85;22.48;;;;;;;5.51;83.09;99325.59;1693544;84;25716;-62
2022/11/03 03:07:31;;;;;;;39.67;22.32;;;;;;;5.50;82.61;99327.48;1693667;84;28215;-63
2022/11/03 03:10:02;;;;;;;39.05;21.35;;;;;;;5.48;82.73;99326.95;1693174;84;25865;-62
2022/11/03 03:12:31;;;;;;;46.20;22.55;;;;;;;5.46;82.94;99324.19;1693796;84;25435;-62
2022/11/03 03:14:59;;;;;;;38.65;21.33;;;;;;;5.41;82.88;99330.41;1693560;84;25688;-62
2022/11/03 03:17:52;;;;;;;40.73;20.77;;;;;;;5.29;83.30;99329.81;1693583;84;25462;-62
2022/11/03 03:20:32;;;;;;;34.43;20.05;;;;;;;5.19;83.44;99327.31;1693444;84;27485;-63
2022/11/03 03:23:21;;;;;;;38.10;21.25;;;;;;;5.14;83.69;99334.05;1693618;84;25708;-62
2022/11/03 03:25:58;;;;;;;37.58;21.00;;;;;;;5.11;83.58;99341.36;1689581;84;25699;-62
2022/11/03 03:28:36;;;;;;;40.55;20.72;;;;;;;5.08;83.73;99341.88;1693484;84;25847;-62
2022/11/03 03:31:07;;;;;;;44.00;24.43;;;;;;;5.05;83.89;99340.52;1693691;84;25604;-62
2022/11/03 03:33:34;;;;;;;47.15;24.52;;;;;;;5.04;83.97;99338.89;1693690;84;28275;-62
2022/11/03 03:36:05;;;;;;;47.62;25.10;;;;;;;5.02;84.14;99335.08;1693693;84;25669;-62
2022/11/03 03:38:40;;;;;;;39.08;21.27;;;;;;;5.00;84.26;99329.59;1693473;84;25446;-62
2022/11/03 03:41:10;;;;;;;40.08;19.62;;;;;;;4.95;84.43;99330.37;1692437;84;25739;-62
2022/11/03 03:43:36;;;;;;;40.48;20.02;;;;;;;4.91;84.44;99321.12;1693549;84;25936;-62
2022/11/03 03:46:07;;;;;;;35.80;18.95;;;;;;;4.86;84.54;99320.53;1693820;84;27410;-62
2022/11/03 03:48:34;;;;;;;34.85;19.52;;;;;;;4.82;84.48;99321.31;1693214;84;25912;-62
2022/11/03 03:51:02;;;;;;;32.88;18.35;;;;;;;4.83;84.63;99321.58;1693637;84;25635;-62
2022/11/03 03:53:29;;;;;;;32.05;19.45;;;;;;;4.90;84.68;99322.20;1693403;84;25801;-62
2022/11/03 03:55:58;;;;;;;37.42;20.30;;;;;;;4.95;84.51;99319.52;1693701;84;25648;-62
2022/11/03 03:58:24;;;;;;;38.28;20.57;;;;;;;5.00;84.55;99313.30;1693493;84;27446;-62
2022/11/03 04:00:51;;;;;;;40.88;21.65;;;;;;;5.04;84.42;99308.17;1693492;84;25526;-62
2022/11/03 04:03:21;;;;;;;49.53;26.25;;;;;;;5.04;84.30;99313.61;1693294;84;25442;-62
2022/11/03 04:05:48;;;;;;;44.18;26.52;;;;;;;5.07;84.25;99308.45;1691952;84;25911;-62
2022/11/03 04:08:15;;;;;;;56.08;29.05;;;;;;;5.09;84.09;99309.02;1693322;84;25447;-62
2022/11/03 04:24:47;;;;;;;39.95;22.42;;;;;;;5.11;84.22;99306.05;1693439;84;25666;-63
2022/11/03 04:27:39;;;;;;;35.17;20.43;;;;;;;5.10;83.85;99301.14;1693680;84;25659;-63
2022/11/03 04:30:26;;;;;;;35.68;20.50;;;;;;;5.07;83.62;99309.02;1693578;84;25648;-64
2022/11/03 04:32:53;;;;;;;32.80;18.92;;;;;;;5.02;83.51;99301.64;1693541;84;25672;-63
2022/11/03 04:35:25;;;;;;;32.25;18.17;;;;;;;4.90;83.77;99301.28;1693759;84;25706;-63
2022/11/03 04:37:58;;;;;;;35.35;17.90;;;;;;;4.82;83.81;99300.41;1693756;84;27495;-63
2022/11/03 04:40:24;;;;;;;31.90;18.42;;;;;;;4.74;84.08;99296.28;1693334;84;26048;-64
2022/11/03 04:42:50;;;;;;;31.42;17.52;;;;;;;4.76;84.59;99298.20;1693598;84;25442;-63
2022/11/03 04:45:23;;;;;;;31.95;17.90;;;;;;;4.81;84.54;99291.97;1693444;84;25867;-63
2022/11/03 04:47:52;;;;;;;32.75;17.95;;;;;;;4.87;84.19;99290.13;1693712;84;25687;-63
2022/11/03 04:50:28;;;;;;;35.20;17.92;;;;;;;4.90;84.03;99292.33;1693432;84;28476;-63
2022/11/03 04:53:00;;;;;;;28.62;16.90;;;;;;;4.88;83.32;99289.05;1693277;84;25662;-63
2022/11/03 04:55:26;;;;;;;33.02;18.05;;;;;;;4.74;82.98;99288.12;1693285;84;25441;-63
2022/11/03 04:58:04;;;;;;;30.52;18.55;;;;;;;4.67;83.44;99288.06;1693386;84;25728;-63
2022/11/03 05:00:30;;;;;;;34.15;18.85;;;;;;;4.65;83.27;99277.46;1693130;84;25501;-64
2022/11/03 05:02:57;;;;;;;32.33;18.65;;;;;;;4.59;83.00;99279.85;1693764;84;28281;-63
2022/11/03 05:05:26;;;;;;;32.85;18.17;;;;;;;4.53;83.31;99283.07;1693530;84;25671;-63
2022/11/03 05:07:54;;;;;;;32.20;18.17;;;;;;;4.48;83.16;99281.66;1693586;84;25703;-63
2022/11/03 05:10:27;;;;;;;34.25;17.82;;;;;;;4.48;83.59;99284.37;1693752;84;26308;-63
2022/11/03 05:12:55;;;;;;;46.92;23.27;;;;;;;4.55;83.75;99276.83;1693454;84;25493;-63
2022/11/03 05:15:29;;;;;;;41.98;21.57;;;;;;;4.55;83.51;99271.95;1693711;84;27608;-63
2022/11/03 05:17:56;;;;;;;40.65;21.77;;;;;;;4.56;83.50;99275.77;1683290;84;25703;-63
2022/11/03 05:20:36;;;;;;;35.30;19.77;;;;;;;4.57;83.41;99279.28;1693680;84;25600;-64
2022/11/03 05:23:04;;;;;;;41.63;21.85;;;;;;;4.56;83.44;99276.30;1693345;84;25787;-63
2022/11/03 05:25:52;;;;;;;37.13;20.23;;;;;;;4.56;83.25;99282.55;1693416;84;25514;-63
2022/11/03 05:28:24;;;;;;;39.27;19.05;;;;;;;4.50;82.82;99281.70;1741223;82;27476;-63
2022/11/03 05:30:52;;;;;;;33.10;17.42;;;;;;;4.46;83.08;99279.76;1730530;82;42924;-63
2022/11/03 05:33:36;;;;;;;35.03;18.27;;;;;;;4.46;83.28;99279.20;1720286;82;25621;-63
2022/11/03 05:36:16;;;;;;;31.93;16.73;;;;;;;4.48;83.38;99278.41;1720679;83;26685;-63
2022/11/03 05:38:42;;;;;;;32.10;16.70;;;;;;;4.44;82.74;99278.66;1720992;82;25556;-63
2022/11/03 05:41:17;;;;;;;24.18;14.87;;;;;;;4.39;83.36;99280.78;1720219;82;27425;-63
2022/11/03 05:43:43;;;;;;;52.17;32.58;;;;;;;4.42;83.46;99280.80;1719679;82;25457;-63
2022/11/03 05:46:11;;;;;;;38.23;20.75;;;;;;;4.38;83.25;99281.04;1720498;82;25665;-63
2022/11/03 05:48:42;;;;;;;29.75;16.87;;;;;;;4.23;83.36;99275.73;1720450;82;25690;-63
2022/11/03 05:51:14;;;;;;;28.90;15.43;;;;;;;4.23;83.92;99279.80;1720255;82;25745;-63
2022/11/03 05:53:42;;;;;;;29.85;15.15;;;;;;;4.24;84.19;99277.92;1721500;81;28185;-63
2022/11/03 05:56:16;;;;;;;25.80;14.98;;;;;;;4.22;84.57;99269.20;1720233;82;25486;-63
2022/11/03 05:58:44;;;;;;;27.50;14.98;;;;;;;4.18;84.80;99269.44;1720451;82;25576;-63
2022/11/03 06:01:27;;;;;;;24.10;14.07;;;;;;;4.19;84.95;99268.36;1720505;82;25909;-63
2022/11/03 06:03:55;;;;;;;25.82;14.50;;;;;;;4.19;84.58;99277.33;1719203;82;25445;-63
2022/11/03 06:06:34;;;;;;;25.55;13.62;;;;;;;4.11;84.50;99271.82;1720172;82;27425;-63
2022/11/03 06:09:14;;;;;;;31.75;15.00;;;;;;;4.06;84.61;99274.47;1720528;82;25500;-63
2022/11/03 06:11:42;;;;;;;29.50;15.03;;;;;;;4.04;84.81;99267.67;1720409;81;25596;-63
2022/11/03 06:14:21;;;;;;;29.32;15.60;;;;;;;4.03;84.93;99267.39;1720150;83;25709;-63
2022/11/03 06:17:04;;;;;;;30.75;15.05;;;;;;;4.02;84.99;99265.21;1720600;82;25481;-65
2022/11/03 06:19:41;;;;;;;27.52;14.90;;;;;;;4.00;85.10;99269.53;1720447;83;28076;-64
2022/11/03 06:22:25;;;;;;;30.95;16.15;;;;;;;4.01;85.37;99268.45;1720770;82;25705;-64
2022/11/03 06:24:58;;;;;;;26.48;15.03;;;;;;;4.04;85.65;99265.78;1720588;82;25604;-62
2022/11/03 06:27:28;;;;;;;32.53;16.25;;;;;;;4.08;86.08;99266.91;1714966;82;26335;-62
2022/11/03 06:30:24;;;;;;;35.08;18.25;;;;;;;4.07;86.15;99272.05;1709773;83;25621;-62
2022/11/03 06:32:50;;;;;;;32.67;16.12;;;;;;;4.11;86.08;99266.92;1710079;82;28162;-62
2022/11/03 06:35:17;;;;;;;26.95;14.53;;;;;;;4.18;86.38;99263.48;1710021;83;25488;-62
2022/11/03 06:37:44;;;;;;;27.25;15.00;;;;;;;4.24;86.26;99261.64;1710070;83;25510;-62
2022/11/03 06:40:18;;;;;;;32.05;14.43;;;;;;;4.29;86.25;99257.59;1709964;82;25684;-62
2022/11/03 06:42:44;;;;;;;26.35;14.00;;;;;;;4.35;86.35;99258.48;1710362;83;25401;-63
2022/11/03 06:45:24;;;;;;;24.32;13.32;;;;;;;4.40;86.44;99257.16;1709946;82;28174;-63
2022/11/03 06:47:52;;;;;;;18.32;11.30;;;;;;;4.43;86.74;99254.48;1709895;82;25669;-63
2022/11/03 06:50:27;;;;;;;18.70;10.10;;;;;;;4.49;87.34;99254.26;1710455;83;25449;-63
2022/11/03 06:52:55;;;;;;;21.50;12.15;;;;;;;4.49;87.83;99249.39;1710096;82;26480;-63
2022/11/03 06:55:31;;;;;;;24.27;12.37;;;;;;;4.56;88.41;99250.51;1710068;83;25672;-63
2022/11/03 06:58:17;;;;;;;21.77;12.37;;;;;;;4.65;88.43;99255.74;1710064;82;27459;-63
2022/11/03 07:00:44;;;;;;;23.70;12.73;;;;;;;4.77;88.81;99251.48;1707396;82;25905;-64
2022/11/03 07:03:36;;;;;;;20.90;11.97;;;;;;;4.91;88.97;99247.78;1709768;83;25684;-64
2022/11/03 07:06:13;;;;;;;24.12;12.73;;;;;;;5.04;89.34;99247.05;1709838;81;25458;-64
2022/11/03 07:08:47;;;;;;;24.43;12.93;;;;;;;5.27;89.70;99253.98;1710375;82;25592;-64
2022/11/03 07:11:23;;;;;;;24.72;12.73;;;;;;;5.57;89.83;99247.58;1709987;82;27434;-64
2022/11/03 07:14:00;;;;;;;22.70;12.07;;;;;;;5.91;89.47;99252.60;1709830;82;25610;-64
2022/11/03 07:16:36;;;;;;;22.95;11.80;;;;;;;6.25;88.73;99243.98;1703034;82;25830;-65
2022/11/03 07:19:14;;;;;;;24.12;12.58;;;;;;;6.56;88.00;99243.74;1709985;82;26548;-64
2022/11/03 07:21:48;;;;;;;21.07;11.00;;;;;;;6.77;87.61;99236.38;1710330;82;25547;-64
2022/11/03 07:24:33;;;;;;;21.75;11.53;;;;;;;7.12;87.45;99235.22;1710136;83;28390;-65
2022/11/03 07:27:17;;;;;;;23.38;12.40;;;;;;;7.49;86.70;99238.09;1712642;82;25423;-65
2022/11/03 07:29:44;;;;;;;25.15;12.00;;;;;;;7.90;86.19;99224.81;1720195;83;25476;-65
2022/11/03 07:32:19;;;;;;;19.57;11.78;;;;;;;8.27;84.70;99221.84;1720409;82;25902;-65
2022/11/03 07:34:48;;;;;;;24.00;12.65;;;;;;;8.64;84.23;99231.97;1720318;82;25422;-63
2022/11/03 07:37:23;;;;;;;24.30;11.05;;;;;;;9.06;83.57;99226.12;1720547;82;26839;-63
2022/11/03 07:39:52;;;;;;;17.32;9.83;;;;;;;9.44;82.77;99228.95;1720368;83;25678;-63
2022/11/03 07:42:22;;;;;;;19.52;10.48;;;;;;;9.82;81.44;99226.86;1720395;83;25434;-65
2022/11/03 07:44:49;;;;;;;29.05;11.97;;;;;;;10.06;80.72;99221.03;1720733;82;25796;-63
2022/11/03 07:47:26;;;;;;;20.12;10.58;;;;;;;10.28;79.47;99210.86;1720161;83;25646;-63
2022/11/03 07:49:53;;;;;;;23.10;11.75;;;;;;;10.49;78.79;99212.73;1720599;82;27432;-63
2022/11/03 07:52:25;;;;;;;24.82;11.85;;;;;;;10.64;77.98;99208.09;1720336;82;25693;-63
2022/11/03 07:54:56;;;;;;;19.60;11.40;;;;;;;10.74;76.99;99209.28;1720391;82;25609;-63
2022/11/03 07:57:30;;;;;;;;;;;;;;;10.89;76.50;99201.91;1722968;82;25758;-63
2022/11/03 08:00:04;;;;;;;17.60;10.53;;;;;;;11.10;77.21;99194.66;1720310;83;25623;-63
2022/11/03 08:02:50;;;;;;;15.35;7.95;;;;;;;11.23;75.50;99186.98;1720649;82;28133;-63
2022/11/03 08:05:16;;;;;;;17.25;8.78;;;;;;;11.16;74.31;99187.41;1721075;83;25442;-63
2022/11/03 08:07:43;;;;;;;17.30;8.63;;;;;;;11.14;74.95;99186.89;1720410;83;25750;-63
2022/11/03 08:10:10;;;;;;;13.40;7.78;;;;;;;11.27;74.28;99195.42;1720571;82;25778;-63
2022/11/03 08:12:36;;;;;;;16.77;8.88;;;;;;;11.29;73.53;99194.00;1720660;82;25640;-63
2022/11/03 08:15:03;;;;;;;16.75;9.08;;;;;;;11.33;73.04;99190.64;1720378;83;27645;-63
2022/11/03 08:17:29;;;;;;;17.20;9.10;;;;;;;11.61;74.54;99188.70;1720197;82;25663;-63
2022/11/03 08:19:56;;;;;;;14.90;8.55;;;;;;;12.07;72.65;99182.47;1720851;82;25590;-63
2022/11/03 08:22:24;;;;;;;15.72;9.75;;;;;;;12.12;70.98;99180.44;1720182;83;25679;-63
2022/11/03 08:24:52;;;;;;;15.10;8.58;;;;;;;12.23;72.05;99176.88;1720466;82;25441;-64
2022/11/03 08:27:18;;;;;;;14.83;8.98;;;;;;;12.33;69.60;99173.09;1724193;82;27523;-64
2022/11/03 08:29:44;;;;;;;14.38;8.23;;;;;;;12.58;70.31;99165.30;1733475;82;25507;-64
2022/11/03 08:32:11;;;;;;;14.47;9.05;;;;;;;12.87;69.82;99165.95;1732100;82;25497;-64
2022/11/03 08:34:37;;;;;;;14.98;9.08;;;;;;;13.13;68.51;99159.73;1734290;82;25777;-64
2022/11/03 08:37:03;;;;;;;14.90;9.15;;;;;;;13.47;69.95;99158.78;1732499;82;25682;-64
2022/11/03 08:39:30;;;;;;;15.55;9.18;;;;;;;14.15;68.78;99164.42;1734732;82;27464;-64
2022/11/03 08:41:57;;;;;;;11.55;7.72;;;;;;;14.83;67.59;99154.75;1732649;82;25630;-64
2022/11/03 08:44:23;;;;;;;12.63;7.90;;;;;;;15.43;65.46;99156.15;1733080;82;25639;-64
2022/11/03 08:46:50;;;;;;;13.70;7.42;;;;;;;15.79;64.74;99153.97;1731767;82;25774;-64
2022/11/03 08:49:16;;;;;;;11.97;7.12;;;;;;;15.95;62.75;99143.69;1735254;82;25722;-64
2022/11/03 08:51:43;;;;;;;10.25;6.25;;;;;;;16.24;61.32;99135.09;1732887;82;27404;-64
2022/11/03 08:54:09;;;;;;;10.88;6.00;;;;;;;16.59;58.51;99135.29;1732883;82;25397;-64
2022/11/03 08:56:36;;;;;;;12.43;7.00;;;;;;;16.48;58.83;99129.38;1733487;81;25615;-64
2022/11/03 08:59:02;;;;;;;11.45;7.03;;;;;;;16.36;56.76;99130.16;1712210;81;25741;-64
2022/11/03 09:01:28;;;;;;;11.65;7.03;;;;;;;15.93;57.73;99128.02;1702291;82;26427;-64
2022/11/03 09:03:55;;;;;;;13.13;7.22;;;;;;;16.03;58.52;99126.23;1751902;81;27446;-64
2022/11/03 09:06:21;;;;;;;12.43;6.50;;;;;;;16.13;58.32;99129.73;1770126;80;25725;-64
2022/11/03 09:08:47;;;;;;;11.40;6.55;;;;;;;16.42;58.20;99131.56;1770274;80;25669;-64
2022/11/03 09:11:14;;;;;;;14.70;7.72;;;;;;;16.80;56.53;99127.47;1770144;80;26434;-64
2022/11/03 09:13:40;;;;;;;11.30;6.60;;;;;;;17.22;57.07;99128.44;1770222;80;25667;-64
2022/11/03 09:16:07;;;;;;;10.88;6.15;;;;;;;17.70;55.10;99123.15;1770449;80;27381;-63
2022/11/03 09:18:34;;;;;;;10.58;6.70;;;;;;;18.13;53.48;99117.27;1770154;80;25717;-63
2022/11/03 09:21:06;;;;;;;11.73;7.55;;;;;;;18.32;52.69;99122.14;1739167;81;25709;-64
2022/11/03 09:23:32;;;;;;;10.93;7.60;;;;;;;18.47;52.65;99112.22;1720603;82;25765;-64
2022/11/03 09:25:58;;;;;;;14.07;8.10;;;;;;;18.84;51.80;99111.17;1736430;81;25671;-63
2022/11/03 09:28:25;;;;;;;11.97;7.10;;;;;;;19.03;52.32;99107.65;1744419;82;27455;-62
2022/11/03 09:30:51;;;;;;;9.48;6.08;;;;;;;19.53;52.61;99102.25;1748815;82;25613;-63
2022/11/03 09:33:17;;;;;;;7.95;5.92;;;;;;;19.31;50.29;99091.46;1748777;82;25413;-63
2022/11/03 09:35:44;;;;;;;8.68;5.75;;;;;;;19.06;49.54;99099.98;1744209;82;25770;-63
2022/11/03 09:38:10;;;;;;;8.80;6.15;;;;;;;18.67;49.36;99097.88;1742893;82;25604;-63
2022/11/03 09:40:37;;;;;;;11.97;7.58;;;;;;;18.58;49.75;99094.47;1743237;82;27401;-63
2022/11/03 09:43:03;;;;;;;22.07;17.42;;;;;;;18.65;49.54;99087.70;1742101;82;25448;-62
2022/11/03 09:45:30;;;;;;;8.80;5.60;;;;;;;18.86;48.23;99087.20;1743311;81;25440;-63
2022/11/03 09:47:56;;;;;;;9.45;5.87;;;;;;;19.00;48.63;99084.77;1747365;82;26416;-63
2022/11/03 09:50:22;;;;;;;6.70;4.97;;;;;;;19.34;48.72;99078.80;1743238;82;25571;-63
2022/11/03 09:52:53;;;;;;;9.15;5.25;;;;;;;19.50;46.66;99067.66;1743030;82;27470;-62
2022/11/03 09:55:25;;;;;;;6.00;4.92;;;;;;;19.51;46.24;99067.86;1743225;81;25445;-63
2022/11/03 09:57:58;;;;;;;7.35;5.03;;;;;;;19.54;47.76;99064.93;1743605;82;25393;-63
2022/11/03 10:00:26;;;;;;;9.00;4.62;;;;;;;20.29;47.20;99061.23;1709358;82;26431;-63
2022/11/03 10:02:53;;;;;;;8.25;5.72;;;;;;;20.97;44.50;99058.02;1742690;82;25704;-63
2022/11/03 10:05:24;;;;;;;8.90;5.50;;;;;;;21.43;44.61;99045.92;1743180;82;28405;-63
2022/11/03 10:08:01;;;;;;;7.72;4.17;;;;;;;21.46;43.37;99037.38;1743425;82;25626;-63
2022/11/03 10:10:29;;;;;;;9.65;5.45;;;;;;;21.81;42.90;99038.21;1738671;82;25665;-63
2022/11/03 10:12:59;;;;;;;6.85;5.78;;;;;;;22.18;41.21;99034.63;1725327;82;26118;-63
2022/11/03 10:15:27;;;;;;;8.50;5.08;;;;;;;22.00;40.77;99030.27;1722143;82;25694;-63
2022/11/03 10:17:55;;;;;;;6.80;5.22;;;;;;;21.59;40.00;99024.01;1726938;81;27354;-63
2022/11/03 10:20:27;;;;;;;6.62;4.40;;;;;;;21.50;39.90;99025.67;1732243;82;26427;-63
2022/11/03 10:22:55;;;;;;;13.53;8.40;;;;;;;21.56;39.57;99021.37;1729470;82;25686;-63
2022/11/03 10:25:43;;;;;;;7.83;5.00;;;;;;;21.60;40.16;99013.06;1716462;83;25795;-63
2022/11/03 10:28:23;;;;;;;7.72;4.33;;;;;;;21.87;39.85;99007.40;1712857;82;25678;-63
2022/11/03 10:31:10;;;;;;;8.70;3.67;;;;;;;22.17;38.60;98998.12;1706705;83;27452;-64
2022/11/03 10:33:53;;;;;;;7.92;4.87;;;;;;;22.15;37.98;98994.93;1705148;82;25802;-62
2022/11/03 10:36:29;;;;;;;8.88;4.70;;;;;;;22.32;37.53;99003.84;1706010;83;25466;-62
2022/11/03 10:38:56;;;;;;;12.05;6.22;;;;;;;21.96;37.24;98988.95;1705971;83;25938;-61
2022/11/03 10:41:29;;;;;;;6.90;4.65;;;;;;;22.17;38.64;98994.55;1706708;83;25599;-62
2022/11/03 10:44:15;;;;;;;8.05;6.35;;;;;;;22.50;36.49;98989.22;1706255;83;27050;-62
2022/11/03 10:47:00;;;;;;;9.38;4.87;;;;;;;22.52;36.75;98982.66;1706467;83;25501;-62
2022/11/03 10:49:34;;;;;;;8.50;5.30;;;;;;;21.93;36.99;98978.55;1706432;83;25712;-62
2022/11/03 10:52:27;;;;;;;10.82;6.30;;;;;;;21.82;36.31;98971.50;1706013;83;26576;-62
2022/11/03 10:54:57;;;;;;;8.18;6.03;;;;;;;21.56;36.84;98973.97;1706425;83;25654;-62
2022/11/03 10:57:26;;;;;;;8.98;5.75;;;;;;;21.17;37.18;98970.93;1706645;83;27528;-62
2022/11/03 10:59:54;;;;;;;19.60;8.38;;;;;;;21.05;38.52;98972.55;1706079;83;25518;-61
2022/11/03 11:02:25;;;;;;;24.40;10.88;;;;;;;21.78;38.46;98965.06;1707323;83;25508;-62
2022/11/03 11:04:59;;;;;;;9.68;5.20;;;;;;;22.50;37.73;98954.31;1706546;83;25903;-63
2022/11/03 11:07:41;;;;;;;10.08;6.03;;;;;;;22.99;35.85;98952.25;1706376;83;25442;-63
2022/11/03 11:10:18;;;;;;;10.85;7.72;;;;;;;23.50;35.19;98938.51;1707936;84;27613;-63
2022/11/03 11:13:22;;;;;;;10.93;6.30;;;;;;;23.14;34.69;98929.97;1707763;84;27155;-62
2022/11/03 11:15:56;;;;;;;10.90;9.30;;;;;;;22.84;36.52;98928.22;1708270;84;25457;-63
2022/11/03 11:18:30;;;;;;;7.55;5.53;;;;;;;22.81;35.50;98927.83;1707014;83;25831;-63
2022/11/03 11:21:01;;;;;;;8.00;5.35;;;;;;;22.78;35.13;98922.20;1702442;83;25719;-63
2022/11/03 11:23:35;;;;;;;9.83;7.05;;;;;;;22.57;36.51;98925.06;1707821;84;27595;-63
2022/11/03 11:26:16;;;;;;;11.93;10.08;;;;;;;22.55;35.68;98917.07;1708542;84;25723;-63
2022/11/03 11:28:46;;;;;;;11.08;9.45;;;;;;;22.21;35.85;98911.64;1705668;83;25686;-63
2022/11/03 11:31:33;;;;;;;7.72;6.05;;;;;;;21.67;35.98;98913.31;1704926;84;25725;-62
2022/11/03 11:34:17;;;;;;;7.62;5.40;;;;;;;21.24;36.35;98914.46;1708490;84;25611;-63
2022/11/03 11:36:57;;;;;;;6.70;4.25;;;;;;;21.10;36.19;98908.12;1705715;84;27411;-62
2022/11/03 11:39:29;;;;;;;7.72;4.65;;;;;;;21.23;36.20;98899.52;1708538;84;25534;-62
2022/11/03 11:42:18;;;;;;;10.45;6.62;;;;;;;21.64;36.74;98895.37;1708290;84;25587;-62
2022/11/03 11:44:56;;;;;;;5.00;4.03;;;;;;;21.93;36.08;98892.06;1684872;84;25689;-63
2022/11/03 11:47:45;;;;;;;8.60;6.37;;;;;;;22.07;35.49;98890.00;1706751;83;25716;-62
2022/11/03 11:50:20;;;;;;;7.70;4.73;;;;;;;21.73;35.84;98884.52;1706458;83;27492;-62
2022/11/03 11:53:04;;;;;;;10.53;6.22;;;;;;;21.60;35.18;98881.19;1706424;83;25503;-62
2022/11/03 11:55:37;;;;;;;9.33;6.35;;;;;;;21.64;35.59;98874.46;1705476;83;25635;-62
2022/11/03 11:58:14;;;;;;;7.55;5.75;;;;;;;21.63;35.34;98873.45;1706893;83;26133;-62
2022/11/03 12:00:54;;;;;;;7.62;5.83;;;;;;;21.92;35.23;98875.94;1706568;83;25640;-63
2022/11/03 12:03:29;;;;;;;8.40;6.72;;;;;;;21.91;35.41;98864.55;1706436;83;27381;-62
2022/11/03 12:05:55;;;;;;;7.30;3.92;;;;;;;22.28;35.09;98850.27;1705510;84;25568;-62
2022/11/03 12:08:27;;;;;;;5.87;3.62;;;;;;;22.01;34.50;98846.31;1705836;84;25615;-62